createdAt,value
2023-11-24T00:01:48.946Z,10.13
2023-11-24T00:04:17.060Z,10.03
2023-11-24T00:06:45.690Z,9.87
2023-11-24T00:09:13.549Z,9.77
2023-11-24T00:11:43.742Z,9.72
2023-11-24T00:14:11.631Z,9.64
2023-11-24T00:16:40.241Z,9.58
2023-11-24T00:19:08.384Z,9.55
2023-11-24T00:21:36.295Z,9.47
2023-11-24T00:24:05.990Z,9.48
2023-11-24T00:26:33.935Z,9.49
2023-11-24T00:29:03.156Z,9.47
2023-11-24T00:31:31.004Z,9.49
2023-11-24T00:33:58.891Z,9.48
2023-11-24T00:36:26.823Z,9.30
2023-11-24T00:38:54.576Z,9.45
2023-11-24T00:41:22.421Z,9.45
2023-11-24T00:43:50.864Z,9.43
2023-11-24T00:46:23.122Z,9.38
2023-11-24T00:48:51.379Z,9.30
2023-11-24T00:51:19.260Z,9.23
2023-11-24T00:53:47.038Z,9.09
2023-11-24T00:56:15.382Z,8.90
2023-11-24T00:58:44.756Z,8.72
2023-11-24T01:01:12.694Z,8.60
2023-11-24T01:03:42.164Z,8.44
2023-11-24T01:06:10.235Z,8.40
2023-11-24T01:08:37.999Z,8.32
2023-11-24T01:11:05.900Z,8.34
2023-11-24T01:13:34.913Z,8.34
2023-11-24T01:16:03.800Z,8.36
2023-11-24T01:18:31.688Z,8.30
2023-11-24T01:21:00.801Z,8.34
2023-11-24T01:23:29.213Z,8.28
2023-11-24T01:25:56.992Z,8.26
2023-11-24T01:28:25.135Z,8.22
2023-11-24T01:30:55.981Z,8.21
2023-11-24T01:33:25.576Z,8.24
2023-11-24T01:35:54.885Z,8.20
2023-11-24T01:38:25.169Z,8.07
2023-11-24T01:40:53.242Z,8.13
2023-11-24T01:43:21.032Z,8.22
2023-11-24T01:45:49.081Z,8.25
2023-11-24T01:48:17.845Z,8.24
2023-11-24T01:50:45.896Z,8.22
2023-11-24T01:53:15.089Z,8.19
2023-11-24T01:55:44.306Z,8.15
2023-11-24T01:58:12.155Z,8.16
2023-11-24T02:00:40.725Z,8.11
2023-11-24T02:03:08.683Z,8.03
2023-11-24T02:05:38.263Z,8.06
2023-11-24T02:08:06.683Z,8.06
2023-11-24T02:10:35.209Z,8.04
2023-11-24T02:13:04.400Z,8.05
2023-11-24T02:15:32.400Z,8.01
2023-11-24T02:18:00.233Z,7.98
2023-11-24T02:20:28.482Z,7.90
2023-11-24T02:22:57.624Z,7.91
2023-11-24T02:25:25.597Z,7.89
2023-11-24T02:27:53.368Z,7.87
2023-11-24T02:30:21.257Z,7.85
2023-11-24T02:32:49.041Z,7.84
2023-11-24T02:35:16.958Z,7.83
2023-11-24T02:37:44.712Z,7.79
2023-11-24T02:40:14.386Z,7.82
2023-11-24T02:42:42.188Z,7.82
2023-11-24T02:45:11.919Z,7.82
2023-11-24T02:47:39.834Z,7.86
2023-11-24T02:50:09.604Z,7.87
2023-11-24T02:52:37.363Z,7.88
2023-11-24T02:55:05.844Z,7.86
2023-11-24T02:57:35.149Z,7.83
2023-11-24T03:00:03.937Z,7.83
2023-11-24T03:02:31.868Z,7.80
2023-11-24T03:04:59.803Z,7.78
2023-11-24T03:07:27.759Z,7.77
2023-11-24T03:09:55.551Z,7.75
2023-11-24T03:12:23.921Z,7.75
2023-11-24T03:14:54.976Z,7.71
2023-11-24T03:17:23.065Z,7.62
2023-11-24T03:19:50.992Z,7.70
2023-11-24T03:22:18.765Z,7.67
2023-11-24T03:24:46.862Z,7.70
2023-11-24T03:27:14.665Z,7.69
2023-11-24T03:29:42.587Z,7.67
2023-11-24T03:32:11.739Z,7.71
2023-11-24T03:34:39.531Z,7.64
2023-11-24T03:37:07.378Z,7.72
2023-11-24T03:39:36.072Z,7.78
2023-11-24T03:42:04.051Z,7.78
2023-11-24T03:44:31.763Z,7.82
2023-11-24T03:46:59.538Z,7.84
2023-11-24T03:49:28.581Z,7.89
2023-11-24T03:51:56.478Z,7.90
2023-11-24T03:54:24.531Z,7.97
2023-11-24T03:56:52.294Z,8.01
2023-11-24T03:59:20.045Z,8.07
2023-11-24T04:01:48.033Z,8.11
2023-11-24T04:04:16.054Z,8.13
2023-11-24T04:06:47.860Z,8.14
2023-11-24T04:09:16.131Z,7.89
2023-11-24T04:11:43.929Z,8.15
2023-11-24T04:14:11.690Z,8.13
2023-11-24T04:16:39.626Z,7.97
2023-11-24T04:19:07.680Z,8.05
2023-11-24T04:21:36.979Z,8.11
2023-11-24T04:24:07.149Z,8.07
2023-11-24T04:26:35.486Z,8.15
2023-11-24T04:29:03.925Z,8.17
2023-11-24T04:31:32.300Z,8.17
2023-11-24T04:34:01.107Z,8.12
2023-11-24T04:36:29.505Z,8.24
2023-11-24T04:38:57.461Z,8.20
2023-11-24T04:41:26.517Z,8.15
2023-11-24T04:43:54.307Z,8.11
2023-11-24T04:46:23.156Z,7.96
2023-11-24T04:48:51.429Z,7.69
2023-11-24T04:51:19.249Z,7.39
2023-11-24T04:53:46.991Z,7.17
2023-11-24T04:56:14.708Z,7.03
2023-11-24T04:58:43.767Z,6.99
2023-11-24T05:01:11.576Z,6.98
2023-11-24T05:03:39.665Z,6.88
2023-11-24T05:06:07.536Z,6.98
2023-11-24T05:08:35.280Z,6.95
2023-11-24T05:11:03.004Z,6.98
2023-11-24T05:13:30.698Z,6.96
2023-11-24T05:16:00.510Z,6.93
2023-11-24T05:18:28.446Z,6.93
2023-11-24T05:20:56.426Z,6.97
2023-11-24T05:23:24.239Z,7.00
2023-11-24T05:25:51.952Z,7.01
2023-11-24T05:28:19.867Z,7.01
2023-11-24T05:30:47.985Z,7.01
2023-11-24T05:33:17.094Z,7.02
2023-11-24T05:35:44.886Z,6.99
2023-11-24T05:38:12.719Z,7.00
2023-11-24T05:40:40.500Z,7.02
2023-11-24T05:43:08.442Z,7.10
2023-11-24T05:45:36.634Z,7.13
2023-11-24T05:48:04.744Z,7.17
2023-11-24T05:50:33.901Z,7.22
2023-11-24T05:53:01.661Z,7.25
2023-11-24T05:55:29.412Z,7.27
2023-11-24T05:57:57.755Z,7.25
2023-11-24T06:00:26.739Z,7.28
2023-11-24T06:02:54.596Z,7.35
2023-11-24T06:05:22.525Z,7.39
2023-11-24T06:07:54.214Z,7.40
2023-11-24T06:10:23.535Z,7.37
2023-11-24T06:12:51.746Z,7.42
2023-11-24T06:15:19.509Z,7.47
2023-11-24T06:17:49.486Z,7.43
2023-11-24T06:20:17.719Z,7.44
2023-11-24T06:22:45.658Z,7.36
2023-11-24T06:25:16.430Z,7.29
2023-11-24T06:27:44.768Z,7.46
2023-11-24T06:30:13.080Z,7.46
2023-11-24T06:32:40.917Z,7.45
2023-11-24T06:35:11.361Z,7.36
2023-11-24T06:37:39.375Z,7.51
2023-11-24T06:40:12.691Z,7.50
2023-11-24T06:42:42.125Z,7.46
2023-11-24T06:45:13.872Z,7.45
2023-11-24T06:47:44.318Z,7.36
2023-11-24T06:50:13.561Z,7.35
2023-11-24T06:52:42.006Z,7.35
2023-11-24T06:55:11.788Z,7.22
2023-11-24T06:57:41.349Z,7.36
2023-11-24T07:00:17.418Z,7.36
2023-11-24T07:02:49.844Z,7.34
2023-11-24T07:05:18.438Z,7.33
2023-11-24T07:07:46.706Z,7.34
2023-11-24T07:10:15.602Z,7.32
2023-11-24T07:12:45.416Z,7.28
2023-11-24T07:15:13.997Z,7.26
2023-11-24T07:17:42.041Z,7.19
2023-11-24T07:20:12.678Z,7.18
2023-11-24T07:22:41.006Z,7.23
2023-11-24T07:25:09.952Z,7.24
2023-11-24T07:27:37.934Z,7.07
2023-11-24T07:30:08.739Z,7.21
2023-11-24T07:32:37.101Z,7.15
2023-11-24T07:35:05.717Z,7.18
2023-11-24T07:37:33.649Z,7.14
2023-11-24T07:40:07.972Z,7.15
2023-11-24T07:42:36.283Z,7.16
2023-11-24T07:45:05.019Z,7.03
2023-11-24T07:47:34.194Z,7.23
2023-11-24T07:50:02.008Z,7.27
2023-11-24T07:52:29.902Z,7.33
2023-11-24T07:54:57.698Z,7.28
2023-11-24T07:57:26.357Z,7.28
2023-11-24T07:59:56.870Z,7.35
2023-11-24T08:02:26.278Z,7.38
2023-11-24T08:04:56.302Z,7.41
2023-11-24T08:07:24.964Z,7.36
2023-11-24T08:09:52.868Z,7.38
2023-11-24T08:12:20.591Z,7.36
2023-11-24T08:14:48.321Z,7.23
2023-11-24T08:17:16.222Z,7.40
2023-11-24T08:19:44.021Z,7.48
2023-11-24T08:22:13.648Z,7.65
2023-11-24T08:24:43.418Z,7.64
2023-11-24T08:27:11.322Z,7.74
2023-11-24T08:29:39.269Z,7.75
2023-11-24T08:32:07.818Z,7.63
2023-11-24T08:34:35.673Z,7.49
2023-11-24T08:37:03.743Z,7.38
2023-11-24T08:39:33.228Z,7.31
2023-11-24T08:42:01.044Z,7.21
2023-11-24T08:44:28.862Z,7.24
2023-11-24T08:46:58.045Z,7.06
2023-11-24T08:49:25.900Z,7.28
2023-11-24T08:51:53.954Z,7.33
2023-11-24T08:54:22.521Z,7.41
2023-11-24T08:56:51.903Z,7.49
2023-11-24T08:59:20.290Z,7.57
2023-11-24T09:01:50.671Z,7.52
2023-11-24T09:04:18.896Z,7.75
2023-11-24T09:06:46.729Z,7.73
2023-11-24T09:09:14.614Z,7.57
2023-11-24T09:11:43.208Z,7.72
2023-11-24T09:14:12.404Z,7.61
2023-11-24T09:16:40.405Z,7.64
2023-11-24T09:19:08.234Z,7.71
2023-11-24T09:21:36.303Z,7.87
2023-11-24T09:24:04.338Z,7.80
2023-11-24T09:26:33.741Z,7.84
2023-11-24T09:29:01.822Z,7.78
2023-11-24T09:31:31.563Z,7.74
2023-11-24T09:33:59.555Z,7.69
2023-11-24T09:36:27.408Z,7.63
2023-11-24T09:38:55.144Z,7.50
2023-11-24T09:41:22.941Z,7.45
2023-11-24T09:43:50.911Z,7.33
2023-11-24T09:46:18.945Z,7.24
2023-11-24T09:48:48.494Z,7.16
2023-11-24T09:51:18.997Z,7.13
2023-11-24T09:53:47.073Z,7.05
2023-11-24T09:56:15.108Z,6.97
2023-11-24T09:58:43.496Z,6.97
2023-11-24T10:01:15.404Z,6.99
2023-11-24T10:03:49.331Z,6.93
2023-11-24T10:06:17.511Z,6.91
2023-11-24T10:08:46.911Z,6.85
2023-11-24T10:11:16.111Z,6.93
2023-11-24T10:13:46.622Z,6.95
2023-11-24T10:16:15.740Z,6.93
2023-11-24T10:18:44.492Z,7.07
2023-11-24T10:21:23.598Z,7.15
2023-11-24T10:23:58.321Z,7.27
2023-11-24T10:26:26.712Z,7.37
2023-11-24T10:28:54.932Z,7.44
2023-11-24T10:31:23.075Z,7.51
2023-11-24T10:33:51.137Z,7.47
2023-11-24T10:36:26.281Z,7.43
2023-11-24T10:39:03.498Z,7.27
2023-11-24T10:41:31.624Z,7.17
2023-11-24T10:43:59.454Z,7.08
2023-11-24T10:46:29.583Z,7.03
2023-11-24T10:49:07.152Z,7.01
2023-11-24T10:51:43.168Z,7.00
2023-11-24T10:54:14.786Z,7.08
2023-11-24T10:56:43.500Z,7.16
2023-11-24T10:59:14.737Z,7.35
2023-11-24T11:01:42.666Z,7.61
2023-11-24T11:04:10.972Z,7.64
2023-11-24T11:06:45.123Z,7.88
2023-11-24T11:09:25.114Z,8.14
2023-11-24T11:12:03.792Z,8.32
2023-11-24T11:14:31.771Z,8.59
2023-11-24T11:17:00.607Z,8.65
2023-11-24T11:19:32.463Z,8.59
2023-11-24T11:22:02.500Z,8.54
2023-11-24T11:24:32.500Z,8.50
2023-11-24T11:27:00.376Z,8.34
2023-11-24T11:29:33.208Z,8.24
2023-11-24T11:32:02.330Z,8.07
2023-11-24T11:34:31.970Z,7.96
2023-11-24T11:37:13.239Z,7.82
2023-11-24T11:39:54.600Z,7.82
2023-11-24T11:42:32.986Z,8.00
2023-11-24T11:45:10.855Z,8.11
2023-11-24T11:47:51.159Z,8.26
2023-11-24T11:50:21.551Z,8.20
2023-11-24T11:52:51.327Z,8.21
2023-11-24T11:55:21.242Z,8.30
2023-11-24T11:57:54.282Z,8.26
2023-11-24T12:00:27.328Z,8.21
2023-11-24T12:02:56.854Z,8.11
2023-11-24T12:05:27.716Z,7.99
2023-11-24T12:07:59.799Z,7.91
2023-11-24T12:10:31.145Z,7.71
2023-11-24T12:13:05.551Z,7.46
2023-11-24T12:15:35.435Z,7.07
2023-11-24T12:18:03.349Z,6.62
2023-11-24T12:20:32.456Z,6.21
2023-11-24T12:23:05.598Z,5.84
2023-11-24T12:25:33.886Z,5.67
2023-11-24T12:28:06.578Z,5.55
2023-11-24T12:30:41.483Z,5.56
2023-11-24T12:33:11.104Z,5.61
2023-11-24T12:35:39.037Z,5.61
2023-11-24T12:38:08.297Z,5.68
2023-11-24T12:40:36.164Z,5.67
2023-11-24T12:43:04.115Z,5.74
2023-11-24T12:45:32.300Z,5.75
2023-11-24T12:48:06.632Z,5.78
2023-11-24T12:50:34.480Z,5.82
2023-11-24T12:53:02.224Z,6.02
2023-11-24T12:55:32.408Z,6.00
2023-11-24T12:58:01.117Z,6.09
2023-11-24T13:00:29.993Z,6.13
2023-11-24T13:02:58.010Z,6.12
2023-11-24T13:05:26.856Z,6.05
2023-11-24T13:07:55.068Z,5.96
2023-11-24T13:10:22.946Z,5.84
2023-11-24T13:12:52.127Z,5.79
2023-11-24T13:15:22.438Z,5.70
2023-11-24T13:17:50.712Z,5.69
2023-11-24T13:20:19.115Z,5.64
2023-11-24T13:22:46.981Z,5.63
2023-11-24T13:25:15.499Z,5.62
2023-11-24T13:27:44.156Z,5.65
2023-11-24T13:30:16.576Z,5.61
2023-11-24T13:32:44.752Z,5.53
2023-11-24T13:35:15.574Z,5.72
2023-11-24T13:37:45.583Z,5.68
2023-11-24T13:40:14.380Z,5.76
2023-11-24T13:42:42.866Z,5.78
2023-11-24T13:45:12.897Z,5.73
2023-11-24T13:47:43.038Z,5.53
2023-11-24T13:50:12.094Z,5.15
2023-11-24T13:52:40.117Z,4.76
2023-11-24T13:55:09.043Z,4.52
2023-11-24T13:57:37.197Z,4.42
2023-11-24T14:00:08.366Z,4.32
2023-11-24T14:02:37.496Z,4.39
2023-11-24T14:05:09.868Z,4.41
2023-11-24T14:07:37.740Z,4.50
2023-11-24T14:10:07.477Z,4.62
2023-11-24T14:12:36.323Z,4.70
2023-11-24T14:15:05.667Z,4.79
2023-11-24T14:17:37.080Z,4.87
2023-11-24T14:20:08.725Z,4.94
2023-11-24T14:22:37.523Z,4.98
2023-11-24T14:25:07.715Z,4.98
2023-11-24T14:27:36.122Z,4.98
2023-11-24T14:30:07.491Z,4.92
2023-11-24T14:32:35.447Z,4.96
2023-11-24T14:35:06.684Z,4.93
2023-11-24T14:37:35.957Z,4.96
2023-11-24T14:40:08.228Z,5.00
2023-11-24T14:42:36.488Z,5.09
2023-11-24T14:45:05.728Z,5.16
2023-11-24T14:47:33.552Z,5.20
2023-11-24T14:50:07.075Z,5.23
2023-11-24T14:52:38.051Z,5.25
2023-11-24T14:55:12.852Z,5.27
2023-11-24T14:57:40.747Z,5.25
2023-11-24T15:00:24.727Z,5.21
2023-11-24T15:02:52.636Z,5.19
2023-11-24T15:05:20.587Z,5.14
2023-11-24T15:07:50.634Z,5.15
2023-11-24T15:10:20.094Z,5.13
2023-11-24T15:12:49.039Z,5.13
2023-11-24T15:15:20.618Z,5.10
2023-11-24T15:17:52.314Z,5.10
2023-11-24T15:20:27.389Z,5.10
2023-11-24T15:22:59.490Z,5.07
2023-11-24T15:25:28.402Z,5.06
2023-11-24T15:27:57.641Z,5.04
2023-11-24T15:30:25.814Z,5.02
2023-11-24T15:32:54.401Z,5.07
2023-11-24T15:35:22.803Z,5.06
2023-11-24T15:37:50.578Z,5.09
2023-11-24T15:40:22.109Z,4.93
2023-11-24T15:42:55.312Z,4.83
2023-11-24T15:45:25.190Z,4.66
2023-11-24T15:48:03.467Z,4.51
2023-11-24T15:50:35.729Z,4.45
2023-11-24T15:53:06.579Z,4.39
2023-11-24T15:55:38.697Z,4.38
2023-11-24T15:58:09.759Z,4.33
2023-11-24T16:00:41.077Z,4.32
2023-11-24T16:03:10.995Z,4.28
2023-11-24T16:05:46.062Z,4.26
2023-11-24T16:08:14.479Z,4.22
2023-11-24T16:10:47.038Z,4.15
2023-11-24T16:13:15.940Z,4.15
2023-11-24T16:15:44.060Z,4.15
2023-11-24T16:18:12.334Z,4.18
2023-11-24T16:20:41.846Z,4.28
2023-11-24T16:23:10.176Z,4.32
2023-11-24T16:25:38.587Z,4.36
2023-11-24T16:28:08.237Z,4.31
2023-11-24T16:30:36.196Z,4.39
2023-11-24T16:33:04.335Z,4.30
2023-11-24T16:35:32.573Z,4.25
2023-11-24T16:38:00.728Z,4.17
2023-11-24T16:40:28.814Z,4.10
2023-11-24T16:42:56.644Z,4.06
2023-11-24T16:45:25.841Z,3.82
2023-11-24T16:47:53.692Z,3.74
2023-11-24T16:50:21.788Z,3.89
2023-11-24T16:52:52.242Z,3.79
2023-11-24T16:55:20.414Z,3.81
2023-11-24T16:57:48.623Z,3.73
2023-11-24T17:00:17.528Z,3.56
2023-11-24T17:02:49.891Z,3.65
2023-11-24T17:05:19.583Z,3.63
2023-11-24T17:07:47.586Z,3.57
2023-11-24T17:10:15.905Z,3.75
2023-11-24T17:12:44.053Z,3.75
2023-11-24T17:15:12.561Z,3.81
2023-11-24T17:17:41.065Z,3.81
2023-11-24T17:20:14.776Z,3.84
2023-11-24T17:22:42.316Z,3.84
2023-11-24T17:25:10.475Z,3.86
2023-11-24T17:27:38.356Z,3.91
2023-11-24T17:30:08.055Z,3.92
2023-11-24T17:32:36.387Z,3.95
2023-11-24T17:35:06.960Z,3.98
2023-11-24T17:37:36.096Z,4.03
2023-11-24T17:40:04.440Z,4.03
2023-11-24T17:42:32.314Z,4.06
2023-11-24T17:45:00.160Z,4.08
2023-11-24T17:47:28.245Z,4.08
2023-11-24T17:49:56.407Z,4.11
2023-11-24T17:52:24.215Z,4.14
2023-11-24T17:54:53.533Z,4.16
2023-11-24T17:57:21.410Z,4.23
2023-11-24T17:59:51.155Z,4.29
2023-11-24T18:02:19.001Z,4.37
2023-11-24T18:04:46.978Z,4.34
2023-11-24T18:07:15.624Z,4.41
2023-11-24T18:09:43.511Z,4.52
2023-11-24T18:12:12.818Z,4.56
2023-11-24T18:14:41.121Z,4.65
2023-11-24T18:17:09.286Z,4.60
2023-11-24T18:19:37.037Z,4.60
2023-11-24T18:22:05.384Z,4.58
2023-11-24T18:24:33.331Z,4.62
2023-11-24T18:27:01.364Z,4.63
2023-11-24T18:29:30.574Z,4.73
2023-11-24T18:31:58.473Z,4.77
2023-11-24T18:34:29.180Z,4.84
2023-11-24T18:36:58.626Z,4.88
2023-11-24T18:39:28.472Z,4.92
2023-11-24T18:41:56.638Z,4.94
2023-11-24T18:44:24.471Z,4.95
2023-11-24T18:46:53.630Z,4.92
2023-11-24T18:49:21.611Z,4.95
2023-11-24T18:51:49.640Z,4.97
2023-11-24T18:54:18.693Z,4.99
2023-11-24T18:56:46.680Z,5.01
2023-11-24T18:59:17.271Z,5.03
2023-11-24T19:01:46.213Z,5.06
2023-11-24T19:04:15.578Z,5.08
2023-11-24T19:06:43.528Z,5.12
2023-11-24T19:09:16.965Z,5.12
2023-11-24T19:11:45.141Z,5.04
2023-11-24T19:14:12.996Z,4.90
2023-11-24T19:16:45.078Z,4.94
2023-11-24T19:19:13.071Z,4.82
2023-11-24T19:21:42.558Z,4.72
2023-11-24T19:24:13.108Z,4.63
2023-11-24T19:26:40.869Z,4.53
2023-11-24T19:29:11.822Z,4.47
2023-11-24T19:31:40.566Z,4.41
2023-11-24T19:34:09.425Z,4.35
2023-11-24T19:36:37.591Z,4.33
2023-11-24T19:39:07.434Z,4.30
2023-11-24T19:41:35.496Z,4.27
2023-11-24T19:44:03.252Z,4.30
2023-11-24T19:46:31.101Z,4.28
2023-11-24T19:48:59.184Z,4.27
2023-11-24T19:51:26.963Z,4.26
2023-11-24T19:53:54.754Z,4.20
2023-11-24T19:56:23.906Z,4.25
2023-11-24T19:58:51.830Z,4.17
2023-11-24T20:01:23.030Z,4.19
2023-11-24T20:03:51.154Z,4.16
2023-11-24T20:06:20.101Z,4.04
2023-11-24T20:08:48.096Z,4.05
2023-11-24T20:11:15.921Z,3.91
2023-11-24T20:13:45.250Z,3.97
2023-11-24T20:16:13.070Z,3.92
2023-11-24T20:18:45.485Z,3.85
2023-11-24T20:21:14.018Z,3.97
2023-11-24T20:23:42.025Z,3.95
2023-11-24T20:26:09.879Z,3.89
2023-11-24T20:28:37.680Z,3.96
2023-11-24T20:31:07.032Z,3.97
2023-11-24T20:33:36.149Z,3.97
2023-11-24T20:36:04.152Z,4.02
2023-11-24T20:38:31.879Z,4.08
2023-11-24T20:40:59.724Z,4.10
2023-11-24T20:43:28.855Z,4.11
2023-11-24T20:45:56.771Z,4.15
2023-11-24T20:48:26.083Z,4.18
2023-11-24T20:50:53.986Z,4.15
2023-11-24T20:53:22.147Z,4.21
2023-11-24T20:55:50.098Z,4.23
2023-11-24T20:58:18.089Z,4.24
2023-11-24T21:00:45.895Z,4.27
2023-11-24T21:03:15.072Z,4.28
2023-11-24T21:05:44.370Z,4.35
2023-11-24T21:08:13.060Z,4.38
2023-11-24T21:10:41.202Z,4.41
2023-11-24T21:13:09.718Z,4.36
2023-11-24T21:15:37.882Z,4.35
2023-11-24T21:18:06.740Z,4.32
2023-11-24T21:20:34.874Z,4.35
2023-11-24T21:23:04.175Z,4.35
2023-11-24T21:25:32.418Z,4.33
2023-11-24T21:28:01.425Z,4.31
2023-11-24T21:30:30.117Z,4.26
2023-11-24T21:32:58.527Z,4.09
2023-11-24T21:35:28.742Z,4.00
2023-11-24T21:37:56.469Z,3.93
2023-11-24T21:40:26.003Z,3.87
2023-11-24T21:42:53.947Z,3.78
2023-11-24T21:45:23.823Z,3.71
2023-11-24T21:47:52.591Z,3.61
2023-11-24T21:50:20.462Z,3.52
2023-11-24T21:52:48.250Z,3.60
2023-11-24T21:55:16.134Z,3.58
2023-11-24T21:57:45.311Z,3.60
2023-11-24T22:00:18.220Z,3.58
2023-11-24T22:02:46.247Z,3.54
2023-11-24T22:05:14.570Z,3.51
2023-11-24T22:07:42.818Z,3.54
2023-11-24T22:10:11.558Z,3.44
2023-11-24T22:12:39.723Z,3.53
2023-11-24T22:15:09.920Z,3.45
2023-11-24T22:17:38.514Z,3.45
2023-11-24T22:20:11.765Z,3.49
2023-11-24T22:22:40.355Z,3.44
2023-11-24T22:25:09.477Z,3.45
2023-11-24T22:27:38.034Z,3.45
2023-11-24T22:30:08.545Z,3.35
2023-11-24T22:32:37.025Z,3.50
2023-11-24T22:35:05.294Z,3.46
2023-11-24T22:37:33.554Z,3.49
2023-11-24T22:40:01.795Z,3.46
2023-11-24T22:42:30.233Z,3.37
2023-11-24T22:44:58.053Z,3.42
2023-11-24T22:47:27.263Z,3.39
2023-11-24T22:49:55.084Z,3.31
2023-11-24T22:52:23.626Z,3.27
2023-11-24T22:54:51.744Z,3.18
2023-11-24T22:57:19.505Z,3.27
2023-11-24T22:59:51.158Z,3.30
2023-11-24T23:02:19.441Z,3.32
2023-11-24T23:04:48.928Z,3.11
2023-11-24T23:07:18.839Z,3.34
2023-11-24T23:09:47.722Z,3.46
2023-11-24T23:12:15.683Z,3.49
2023-11-24T23:14:43.531Z,3.51
2023-11-24T23:17:11.868Z,3.56
2023-11-24T23:19:41.672Z,3.52
2023-11-24T23:22:13.173Z,3.61
2023-11-24T23:24:46.341Z,3.64
2023-11-24T23:27:14.328Z,3.61
2023-11-24T23:29:42.603Z,3.58
2023-11-24T23:32:10.619Z,3.55
2023-11-24T23:34:38.483Z,3.54
2023-11-24T23:37:06.241Z,3.55
2023-11-24T23:39:36.013Z,3.53
2023-11-24T23:42:05.501Z,3.50
2023-11-24T23:44:33.279Z,3.51
2023-11-24T23:47:01.577Z,3.51
2023-11-24T23:49:29.453Z,3.42
2023-11-24T23:51:57.348Z,3.43
2023-11-24T23:54:25.136Z,3.41
2023-11-24T23:56:54.190Z,3.36
2023-11-24T23:59:21.930Z,3.38
